Airfield :
LOGIN :

Register | Disclaimer

   EN    FR    IT 

 










Legend :    VFR   Marginal VFR   IFR   Intensive IFR   Very Intensive IFR
Visi :
Ceiling :
>= 8 km
>= 3000ft
5 to 8 km
1000 to 3000 ft
1500m to 5 km
500 to 1000 ft
800 to 1500m
200 to 500 ft
< 800m
< 200 ft
Symbols :   Thunderstorms  Fog  Heavy snow  Heavy precipitations  Wind > 20 kt
SIGMETs :     Misc.  Thunderstorms  Icing  Turbulence  Mountain Waves  Volcanic Ashes







- Airport Elevation : 650 ft
- IATA code : ZJI


LSZL - Locarno

CURRENT METAR :
  • 180450Z 00000KT 9000 BCFG FEW042 10/10 Q1018 RMK BLU+

EXPIRED METARs :
  • 180420Z AUTO 00000KT 4300NDV BR FEW041 10/10 Q1018 RMK
  • 180350Z AUTO 07001KT 0800NDV R08/P2000D R26/P2000N -SHRA FG FEW043 11/11 Q1018 RMK
  • 180320Z AUTO VRB01KT 2200NDV BCFG FEW030 10/10 Q1018 RMK
  • 180250Z AUTO 00000KT 5000NDV BR SCT039 11/11 Q1018 RMK
  • 180220Z AUTO 00000KT 2000NDV -RA FG SCT038 11/11 Q1018 RMK

TAF TAF LSZL
Valid from the 18 at 03:00 until the 18 at 12:00 UTC


180225Z 1803/1812 VRB02KT 4000 BR SCT035
PROB40 1803/1807 1500 BCFG
BECMG 1807/1810 CAVOK
No reported NOTAMs for that airfield.



MET'MAP, your aeronautical weather chart ! - Copyright ORBIFLY December 2007 - Disclaimer

ORBIFLY MET'MAP TEAM :

Programming & Development : Alexandra Zaïnal
Concept & Development : Baudouin d'Aumeries
Co-Development & Prog : Marc-Olivier Méhu
Technical & hardware support : Manuel Goepfert

Contact : metmap@orbifly.com




SOURCES & CREDITS :

   NOAA